createdAt,value
2022-09-10T00:02:39.224Z,16.56
2022-09-10T00:08:59.171Z,16.46
2022-09-10T00:15:22.219Z,16.38
2022-09-10T00:21:42.204Z,16.38
2022-09-10T00:28:05.178Z,16.38
2022-09-10T00:34:25.184Z,16.39
2022-09-10T00:40:48.233Z,16.42
2022-09-10T00:47:08.216Z,16.44
2022-09-10T00:53:31.285Z,16.46
2022-09-10T00:59:51.206Z,16.48
2022-09-10T01:06:14.220Z,16.51
2022-09-10T01:12:35.945Z,16.54
2022-09-10T01:18:57.221Z,16.57
2022-09-10T01:25:17.218Z,16.58
2022-09-10T01:31:40.260Z,16.55
2022-09-10T01:38:00.173Z,16.52
2022-09-10T01:44:23.269Z,16.45
2022-09-10T01:50:43.181Z,16.41
2022-09-10T01:57:06.254Z,16.42
2022-09-10T02:03:26.191Z,16.41
2022-09-10T02:09:49.291Z,16.38
2022-09-10T02:16:09.230Z,16.36
2022-09-10T02:22:32.292Z,16.33
2022-09-10T02:28:52.177Z,16.31
2022-09-10T02:35:15.208Z,16.31
2022-09-10T02:41:35.170Z,16.31
2022-09-10T02:47:58.219Z,16.32
2022-09-10T02:54:18.174Z,16.35
2022-09-10T03:00:41.183Z,16.39
2022-09-10T03:07:01.320Z,16.4
2022-09-10T03:13:24.255Z,16.41
2022-09-10T03:19:44.265Z,16.43
2022-09-10T03:35:37.125Z,16.45
2022-09-10T03:41:57.185Z,16.44
2022-09-10T03:48:20.174Z,16.44
2022-09-10T03:54:40.165Z,16.42
2022-09-10T04:01:03.227Z,16.41
2022-09-10T04:07:23.161Z,16.4
2022-09-10T04:13:46.194Z,16.37
2022-09-10T04:20:06.327Z,16.37
2022-09-10T04:26:29.150Z,16.38
2022-09-10T04:32:49.178Z,16.4
2022-09-10T04:39:12.212Z,16.42
2022-09-10T04:45:32.197Z,16.42
2022-09-10T04:51:55.256Z,16.43
2022-09-10T04:58:15.164Z,16.43
2022-09-10T05:04:38.174Z,16.43
2022-09-10T05:10:58.266Z,16.43
2022-09-10T05:17:21.158Z,16.45
2022-09-10T05:23:41.205Z,16.45
2022-09-10T05:30:04.223Z,16.48
2022-09-10T05:36:24.207Z,16.54
2022-09-10T05:42:47.199Z,16.6
2022-09-10T05:49:07.196Z,16.64
2022-09-10T05:55:30.180Z,16.68
2022-09-10T06:01:50.197Z,16.71
2022-09-10T06:08:13.192Z,16.77
2022-09-10T06:14:33.191Z,16.9
2022-09-10T06:20:56.162Z,17.07
2022-09-10T06:27:16.175Z,17.22
2022-09-10T06:33:39.178Z,17.33
2022-09-10T06:39:59.186Z,17.44
2022-09-10T06:46:57.149Z,17.56
2022-09-10T06:52:42.201Z,17.7
2022-09-10T06:59:05.209Z,17.76
2022-09-10T07:05:31.246Z,17.78
2022-09-10T07:11:54.219Z,17.76
2022-09-10T07:18:14.200Z,17.75
2022-09-10T07:24:37.222Z,17.83
2022-09-10T07:30:57.225Z,17.89
2022-09-10T07:37:20.227Z,17.88
2022-09-10T07:43:40.188Z,17.9
2022-09-10T07:50:03.170Z,17.94
2022-09-10T07:56:23.301Z,18.02
2022-09-10T08:02:46.218Z,18.13
2022-09-10T08:09:06.248Z,18.3
2022-09-10T08:15:29.157Z,18.52
2022-09-10T08:21:49.274Z,18.82
2022-09-10T08:28:12.249Z,19.15
2022-09-10T08:34:32.213Z,19.42
2022-09-10T08:58:40.182Z,19.39
2022-09-10T09:05:03.147Z,19.28
2022-09-10T09:11:23.190Z,19.33
2022-09-10T09:17:46.198Z,19.54
2022-09-10T09:24:14.031Z,19.47
2022-09-10T09:30:29.210Z,19.28
2022-09-10T09:36:49.254Z,19.18
2022-09-10T09:43:12.237Z,19.08
2022-09-10T09:49:32.189Z,19.23
2022-09-10T09:55:55.238Z,19.49
2022-09-10T10:02:15.282Z,19.7
2022-09-10T10:08:38.190Z,19.76
2022-09-10T10:14:58.233Z,19.87
2022-09-10T10:21:21.162Z,19.86
2022-09-10T10:27:41.219Z,19.79
2022-09-10T10:34:04.201Z,19.77
2022-09-10T10:40:24.170Z,19.88
2022-09-10T10:46:47.274Z,19.93
2022-09-10T10:53:07.242Z,19.86
2022-09-10T10:59:30.227Z,19.86
2022-09-10T11:05:50.205Z,19.83
2022-09-10T11:12:13.234Z,19.86
2022-09-10T11:18:33.273Z,19.92
2022-09-10T11:24:56.195Z,20.02
2022-09-10T11:31:16.219Z,20.16
2022-09-10T11:37:39.234Z,20.2
2022-09-10T11:43:59.194Z,20.12
2022-09-10T11:50:22.243Z,20.05
2022-09-10T11:56:42.235Z,19.97
2022-09-10T12:03:05.214Z,19.93
2022-09-10T12:09:25.234Z,19.8
2022-09-10T12:15:48.240Z,19.71
2022-09-10T12:22:08.211Z,19.65
2022-09-10T12:28:31.202Z,19.64
2022-09-10T12:34:51.206Z,19.6
2022-09-10T12:41:14.252Z,19.76
2022-09-10T12:47:34.246Z,19.9
2022-09-10T12:53:57.252Z,19.88
2022-09-10T13:00:17.176Z,19.76
2022-09-10T13:06:40.219Z,19.89
2022-09-10T13:13:00.200Z,20.08
2022-09-10T13:19:23.211Z,20.21
2022-09-10T13:25:43.238Z,20.11
2022-09-10T13:32:06.202Z,19.91
2022-09-10T13:38:26.162Z,19.66
2022-09-10T13:44:49.233Z,19.35
2022-09-10T14:09:02.707Z,17.79
2022-09-10T14:15:22.144Z,17.75
2022-09-10T14:21:45.174Z,17.89
2022-09-10T14:28:05.173Z,18.12
2022-09-10T14:34:28.172Z,18.23
2022-09-10T14:40:48.198Z,18.28
2022-09-10T14:47:11.179Z,18.27
2022-09-10T14:53:31.985Z,18.44
2022-09-10T14:59:57.291Z,18.55
2022-09-10T15:06:15.190Z,18.76
2022-09-10T15:12:38.405Z,19.04
2022-09-10T15:18:58.146Z,19.41
2022-09-10T15:25:21.196Z,19.61
2022-09-10T15:31:42.371Z,19.6
2022-09-10T15:38:05.460Z,19.56
2022-09-10T15:44:25.206Z,19.57
2022-09-10T15:50:48.147Z,19.42
2022-09-10T15:57:08.215Z,19.25
2022-09-10T16:03:31.169Z,19.22
2022-09-10T16:09:51.163Z,19.24
2022-09-10T16:16:14.194Z,19.21
2022-09-10T16:22:34.195Z,19.19
2022-09-10T16:28:57.214Z,19.18
2022-09-10T16:35:17.158Z,19.2
2022-09-10T16:41:40.177Z,19.19
2022-09-10T16:48:04.053Z,19.14
2022-09-10T16:54:23.147Z,19.05
2022-09-10T17:00:43.437Z,18.9
2022-09-10T17:07:06.485Z,18.78
2022-09-10T17:13:26.499Z,18.69
2022-09-10T17:19:49.175Z,18.64
2022-09-10T17:26:09.174Z,18.6
2022-09-10T17:32:32.191Z,18.55
2022-09-10T17:38:52.240Z,18.51
2022-09-10T17:45:15.208Z,18.49
2022-09-10T17:51:35.188Z,18.48
2022-09-10T17:57:58.240Z,18.44
2022-09-10T18:04:18.189Z,18.24
2022-09-10T18:10:41.166Z,18.05
2022-09-10T18:17:01.267Z,17.91
2022-09-10T18:23:24.215Z,17.77
2022-09-10T18:29:44.194Z,17.68
2022-09-10T18:36:07.259Z,17.62
2022-09-10T18:42:27.199Z,17.48
2022-09-10T18:48:50.312Z,17.33
2022-09-10T18:55:10.199Z,17.26
2022-09-10T19:01:33.288Z,17.22
2022-09-10T19:17:22.112Z,17.12
2022-09-10T19:23:42.153Z,17.09
2022-09-10T19:30:05.227Z,17.06
2022-09-10T19:36:25.284Z,17.06
2022-09-10T19:42:48.207Z,17.06
2022-09-10T19:49:08.197Z,17.06
2022-09-10T19:55:31.261Z,17.08
2022-09-10T20:01:51.286Z,17.1
2022-09-10T20:08:14.223Z,17.13
2022-09-10T20:14:34.184Z,17.14
2022-09-10T20:20:57.199Z,17.14
2022-09-10T20:27:17.132Z,17.15
2022-09-10T20:33:40.221Z,17.18
2022-09-10T20:40:00.274Z,17.18
2022-09-10T20:46:23.331Z,17.17
2022-09-10T20:52:43.212Z,17.15
2022-09-10T20:59:06.183Z,17.15
2022-09-10T21:05:26.322Z,17.14
2022-09-10T21:11:49.270Z,17.14
2022-09-10T21:18:09.295Z,17.14
2022-09-10T21:24:32.276Z,17.12
2022-09-10T21:30:52.231Z,17.1
2022-09-10T21:37:15.176Z,17.09
2022-09-10T21:43:35.194Z,17.09
2022-09-10T21:49:58.175Z,17.06
2022-09-10T21:56:18.206Z,17.03
2022-09-10T22:20:36.195Z,16.94
2022-09-10T22:26:56.147Z,16.95
2022-09-10T22:33:19.170Z,16.97
2022-09-10T22:39:39.405Z,17.01
2022-09-10T22:46:02.273Z,17.03
2022-09-10T22:52:22.298Z,17.03
2022-09-10T22:58:45.241Z,16.97
2022-09-10T23:05:05.182Z,16.93
2022-09-10T23:11:28.206Z,16.88
2022-09-10T23:17:48.218Z,16.85
2022-09-10T23:24:11.170Z,16.81
2022-09-10T23:30:31.218Z,16.78
2022-09-10T23:36:54.192Z,16.76
2022-09-10T23:43:14.142Z,16.76
2022-09-10T23:49:37.220Z,16.75
2022-09-10T23:55:57.191Z,16.75
